createdAt,value
2018-04-18T00:00:53.695Z,23.07
2018-04-18T00:03:24.963Z,18.57
2018-04-18T00:05:56.247Z,21.03
2018-04-18T00:08:28.345Z,16.27
2018-04-18T00:10:59.557Z,20.97
2018-04-18T00:13:30.739Z,22.73
2018-04-18T00:16:01.945Z,21.93
2018-04-18T00:18:33.900Z,20.33
2018-04-18T00:21:05.058Z,15.73
2018-04-18T00:23:37.014Z,21.03
2018-04-18T00:26:08.943Z,18.07
2018-04-18T00:28:40.215Z,15.77
2018-04-18T00:31:12.186Z,21.53
2018-04-18T00:33:44.145Z,22.10
2018-04-18T00:36:16.114Z,22.67
2018-04-18T00:38:48.052Z,22.83
2018-04-18T00:41:19.278Z,19.13
2018-04-18T00:43:50.474Z,21.63
2018-04-18T00:46:21.710Z,22.07
2018-04-18T00:48:52.957Z,21.13
2018-04-18T00:51:24.154Z,23.17
2018-04-18T00:53:55.346Z,20.47
2018-04-18T00:56:26.552Z,23.80
2018-04-18T00:58:57.715Z,23.00
2018-04-18T01:01:28.956Z,21.03
2018-04-18T01:04:00.122Z,22.03
2018-04-18T01:06:31.365Z,23.07
2018-04-18T01:09:02.651Z,25.00
2018-04-18T01:11:33.913Z,22.70
2018-04-18T01:14:05.098Z,22.97
2018-04-18T01:16:36.354Z,18.97
2018-04-18T01:19:07.546Z,17.40
2018-04-18T01:21:38.949Z,22.73
2018-04-18T01:24:10.142Z,20.40
2018-04-18T01:26:41.506Z,19.60
2018-04-18T01:29:12.810Z,19.60
2018-04-18T01:31:44.037Z,22.23
2018-04-18T01:34:15.277Z,23.57
2018-04-18T01:36:46.485Z,25.37
2018-04-18T01:39:18.441Z,18.63
2018-04-18T01:41:49.682Z,19.77
2018-04-18T01:44:20.917Z,22.53
2018-04-18T01:46:52.102Z,25.30
2018-04-18T01:49:30.563Z,18.63
2018-04-18T01:52:01.778Z,23.37
2018-04-18T01:54:33.737Z,22.97
2018-04-18T01:57:04.956Z,22.43
2018-04-18T01:59:36.885Z,22.43
2018-04-18T02:02:08.105Z,21.70
2018-04-18T02:04:39.344Z,23.37
2018-04-18T02:07:10.582Z,21.13
2018-04-18T02:09:41.833Z,22.40
2018-04-18T02:12:13.049Z,21.60
2018-04-18T02:14:44.254Z,22.20
2018-04-18T02:17:15.480Z,23.67
2018-04-18T02:19:46.882Z,21.03
2018-04-18T02:22:18.065Z,23.83
2018-04-18T02:24:49.291Z,21.97
2018-04-18T02:27:20.504Z,25.07
2018-04-18T02:29:52.700Z,23.03
2018-04-18T02:32:23.962Z,18.97
2018-04-18T02:34:55.199Z,23.37
2018-04-18T02:37:26.421Z,18.80
2018-04-18T02:39:57.610Z,18.37
2018-04-18T02:42:28.871Z,19.80
2018-04-18T02:45:00.093Z,24.17
2018-04-18T02:47:31.301Z,20.87
2018-04-18T02:50:03.991Z,24.90
2018-04-18T02:52:35.160Z,20.73
2018-04-18T02:55:07.298Z,21.30
2018-04-18T02:57:38.504Z,25.27
2018-04-18T03:00:10.464Z,22.77
2018-04-18T03:02:41.664Z,21.17
2018-04-18T03:05:12.874Z,23.87
2018-04-18T03:07:44.094Z,16.37
2018-04-18T03:10:16.125Z,21.33
2018-04-18T03:12:48.082Z,22.13
2018-04-18T03:15:19.237Z,25.07
2018-04-18T03:17:50.471Z,24.70
2018-04-18T03:20:21.689Z,22.27
2018-04-18T03:22:52.993Z,22.73
2018-04-18T03:25:24.195Z,21.77
2018-04-18T03:27:55.432Z,20.80
2018-04-18T03:30:26.782Z,21.93
2018-04-18T03:32:58.071Z,20.87
2018-04-18T03:35:30.035Z,21.53
2018-04-18T03:38:01.339Z,19.53
2018-04-18T03:40:32.523Z,19.90
2018-04-18T03:43:03.856Z,20.17
2018-04-18T03:45:35.112Z,24.23
2018-04-18T03:48:07.132Z,23.60
2018-04-18T03:50:38.359Z,21.97
2018-04-18T03:53:09.578Z,20.93
2018-04-18T03:55:40.826Z,22.93
2018-04-18T03:58:12.011Z,24.40
2018-04-18T04:00:43.220Z,24.33
2018-04-18T04:03:14.535Z,24.37
2018-04-18T04:05:45.702Z,23.33
2018-04-18T04:08:17.763Z,24.20
2018-04-18T04:10:49.017Z,24.60
2018-04-18T04:13:20.250Z,25.77
2018-04-18T04:15:52.404Z,25.40
2018-04-18T04:18:36.743Z,25.43
2018-04-18T04:21:20.315Z,26.80
2018-04-18T04:24:03.743Z,21.40
2018-04-18T04:26:34.965Z,27.13
2018-04-18T04:29:06.129Z,24.33
2018-04-18T04:31:37.444Z,21.40
2018-04-18T04:34:08.649Z,25.37
2018-04-18T04:36:39.885Z,26.27
2018-04-18T04:39:11.151Z,25.60
2018-04-18T04:41:42.474Z,24.37
2018-04-18T04:44:13.724Z,20.63
2018-04-18T04:46:44.963Z,26.20
2018-04-18T04:49:16.204Z,25.13
2018-04-18T04:51:47.483Z,28.73
2018-04-18T04:54:19.516Z,24.77
2018-04-18T04:56:51.471Z,24.13
2018-04-18T04:59:22.717Z,22.97
2018-04-18T05:01:53.930Z,26.40
2018-04-18T05:04:25.339Z,28.10
2018-04-18T05:06:56.690Z,27.87
2018-04-18T05:09:28.712Z,21.73
2018-04-18T05:11:59.986Z,26.43
2018-04-18T05:14:31.188Z,26.33
2018-04-18T05:17:02.402Z,31.37
2018-04-18T05:19:34.375Z,25.10
2018-04-18T05:22:05.579Z,28.43
2018-04-18T05:24:36.885Z,22.70
2018-04-18T05:27:08.201Z,25.97
2018-04-18T05:29:39.427Z,27.50
2018-04-18T05:32:11.364Z,25.77
2018-04-18T05:34:42.716Z,24.17
2018-04-18T05:37:13.922Z,26.80
2018-04-18T05:39:45.213Z,28.10
2018-04-18T05:42:16.389Z,26.20
2018-04-18T05:44:48.353Z,31.07
2018-04-18T05:47:20.392Z,26.50
2018-04-18T05:49:51.570Z,34.23
2018-04-18T05:52:29.326Z,34.57
2018-04-18T05:55:01.354Z,38.20
2018-04-18T05:57:32.575Z,35.87
2018-04-18T06:00:03.849Z,40.83
2018-04-18T06:02:35.112Z,38.77
2018-04-18T06:05:06.393Z,37.93
2018-04-18T06:07:38.397Z,33.43
2018-04-18T06:10:09.704Z,38.37
2018-04-18T06:12:40.982Z,38.23
2018-04-18T06:15:12.354Z,41.77
2018-04-18T06:17:43.599Z,38.73
2018-04-18T06:20:14.896Z,37.27
2018-04-18T06:22:46.084Z,38.77
2018-04-18T06:25:17.360Z,43.77
2018-04-18T06:27:48.554Z,40.00
2018-04-18T06:30:19.778Z,42.07
2018-04-18T06:32:51.063Z,41.30
2018-04-18T06:35:22.285Z,39.13
2018-04-18T06:37:53.458Z,45.00
2018-04-18T06:40:26.561Z,42.20
2018-04-18T06:42:57.988Z,39.07
2018-04-18T06:45:29.275Z,37.77
2018-04-18T06:48:02.318Z,43.50
2018-04-18T06:50:33.720Z,38.67
2018-04-18T06:53:05.413Z,34.57
2018-04-18T06:55:36.626Z,31.77
2018-04-18T06:58:07.831Z,34.63
2018-04-18T07:00:39.121Z,32.97
2018-04-18T07:03:10.367Z,36.87
2018-04-18T07:05:41.601Z,33.27
2018-04-18T07:08:12.843Z,35.13
2018-04-18T07:10:44.850Z,34.20
2018-04-18T07:13:16.106Z,34.97
2018-04-18T07:15:47.345Z,33.67
2018-04-18T07:18:18.534Z,33.30
2018-04-18T07:20:49.804Z,31.47
2018-04-18T07:23:21.063Z,30.43
2018-04-18T07:25:53.072Z,32.57
2018-04-18T07:28:24.278Z,36.47
2018-04-18T07:30:55.525Z,34.10
2018-04-18T07:33:26.799Z,29.63
2018-04-18T07:35:58.842Z,36.97
2018-04-18T07:38:30.081Z,33.17
2018-04-18T07:41:01.304Z,32.70
2018-04-18T07:43:32.558Z,31.57
2018-04-18T07:46:03.780Z,32.37
2018-04-18T07:48:34.961Z,28.73
2018-04-18T07:51:06.319Z,32.37
2018-04-18T07:53:40.351Z,36.87
2018-04-18T07:56:12.357Z,25.20
2018-04-18T07:58:43.609Z,28.37
2018-04-18T08:01:14.859Z,31.37
2018-04-18T08:03:46.050Z,28.10
2018-04-18T08:06:18.145Z,23.83
2018-04-18T08:08:49.388Z,27.07
2018-04-18T08:11:20.773Z,24.50
2018-04-18T08:13:52.084Z,27.93
2018-04-18T08:16:23.362Z,26.27
2018-04-18T08:18:54.575Z,25.97
2018-04-18T08:21:25.762Z,23.40
2018-04-18T08:23:57.726Z,25.30
2018-04-18T08:26:29.232Z,27.87
2018-04-18T08:29:00.425Z,27.47
2018-04-18T08:31:32.433Z,30.37
2018-04-18T08:34:03.786Z,21.93
2018-04-18T08:36:35.017Z,23.37
2018-04-18T08:39:06.500Z,23.97
2018-04-18T08:41:37.768Z,25.80
2018-04-18T08:44:09.023Z,28.03
2018-04-18T08:46:41.358Z,26.40
2018-04-18T08:49:21.122Z,26.10
2018-04-18T08:51:52.370Z,22.60
2018-04-18T08:54:23.713Z,26.30
2018-04-18T08:56:54.987Z,24.77
2018-04-18T08:59:26.261Z,27.63
2018-04-18T09:01:57.474Z,21.77
2018-04-18T09:04:28.746Z,27.43
2018-04-18T09:07:00.021Z,25.93
2018-04-18T09:09:31.206Z,25.57
2018-04-18T09:12:03.382Z,27.77
2018-04-18T09:14:34.650Z,22.90
2018-04-18T09:17:05.965Z,21.20
2018-04-18T09:19:38.282Z,23.40
2018-04-18T09:22:09.623Z,23.80
2018-04-18T09:24:40.948Z,22.23
2018-04-18T09:27:12.273Z,19.57
2018-04-18T09:29:43.495Z,19.63
2018-04-18T09:32:14.733Z,23.93
2018-04-18T09:34:46.422Z,20.00
2018-04-18T09:37:17.606Z,21.10
2018-04-18T09:39:49.833Z,19.03
2018-04-18T09:42:21.096Z,20.40
2018-04-18T09:44:52.350Z,21.93
2018-04-18T09:47:39.307Z,18.23
2018-04-18T09:50:10.695Z,27.63
2018-04-18T09:52:41.873Z,22.07
2018-04-18T09:55:13.126Z,18.20
2018-04-18T09:57:44.392Z,16.10
2018-04-18T10:00:16.083Z,18.00
2018-04-18T10:02:53.454Z,20.33
2018-04-18T10:05:25.446Z,19.97
2018-04-18T10:07:56.651Z,21.53
2018-04-18T10:10:27.864Z,19.50
2018-04-18T10:12:59.054Z,20.93
2018-04-18T10:15:30.662Z,17.97
2018-04-18T10:18:01.915Z,13.70
2018-04-18T10:20:33.549Z,18.47
2018-04-18T10:23:04.854Z,16.37
2018-04-18T10:25:36.167Z,18.23
2018-04-18T10:28:07.431Z,18.20
2018-04-18T10:30:39.759Z,18.90
2018-04-18T10:33:10.971Z,19.27
2018-04-18T10:35:42.249Z,24.60
2018-04-18T10:38:13.475Z,18.80
2018-04-18T10:40:45.421Z,18.03
2018-04-18T10:43:16.726Z,19.20
2018-04-18T10:45:47.970Z,16.97
2018-04-18T10:48:19.178Z,17.67
2018-04-18T10:50:50.458Z,20.97
2018-04-18T10:53:22.806Z,17.00
2018-04-18T10:55:54.190Z,15.00
2018-04-18T10:58:26.171Z,20.97
2018-04-18T11:00:57.373Z,20.77
2018-04-18T11:03:28.613Z,20.67
2018-04-18T11:05:59.821Z,19.03
2018-04-18T11:08:31.100Z,30.50
2018-04-18T11:11:03.093Z,21.20
2018-04-18T11:13:34.336Z,18.60
2018-04-18T11:16:06.311Z,19.70
2018-04-18T11:18:37.633Z,19.50
2018-04-18T11:21:09.613Z,19.60
2018-04-18T11:23:41.619Z,15.93
2018-04-18T11:26:12.838Z,20.40
2018-04-18T11:28:44.087Z,18.93
2018-04-18T11:31:15.358Z,18.83
2018-04-18T11:33:46.579Z,20.67
2018-04-18T11:36:17.840Z,18.33
2018-04-18T11:38:49.124Z,21.17
2018-04-18T11:41:20.334Z,21.87
2018-04-18T11:43:51.610Z,19.43
2018-04-18T11:46:22.899Z,21.47
2018-04-18T11:48:54.388Z,20.80
2018-04-18T11:51:25.604Z,22.10
2018-04-18T11:53:56.980Z,21.43
2018-04-18T11:56:28.134Z,18.83
2018-04-18T11:58:59.396Z,20.70
2018-04-18T12:01:30.604Z,17.13
2018-04-18T12:04:01.851Z,19.13
2018-04-18T12:06:33.211Z,17.23
2018-04-18T12:09:04.459Z,16.20
2018-04-18T12:11:35.794Z,11.53
2018-04-18T12:14:07.436Z,13.87
2018-04-18T12:16:38.700Z,11.63
2018-04-18T12:19:09.972Z,17.17
2018-04-18T12:21:41.922Z,12.00
2018-04-18T12:24:13.865Z,15.37
2018-04-18T12:26:45.296Z,13.13
2018-04-18T12:29:16.519Z,15.77
2018-04-18T12:31:47.735Z,11.90
2018-04-18T12:34:19.668Z,15.07
2018-04-18T12:36:51.701Z,18.37
2018-04-18T12:39:22.903Z,18.27
2018-04-18T12:41:54.104Z,14.50
2018-04-18T12:44:25.309Z,16.80
2018-04-18T12:46:56.514Z,15.07
2018-04-18T12:49:28.474Z,14.50
2018-04-18T12:51:59.656Z,18.63
2018-04-18T12:54:30.883Z,28.83
2018-04-18T12:57:02.289Z,16.30
2018-04-18T12:59:33.522Z,14.70
2018-04-18T13:02:04.732Z,10.73
2018-04-18T13:04:36.074Z,10.70
2018-04-18T13:07:08.038Z,12.57
2018-04-18T13:09:39.524Z,15.63
2018-04-18T13:12:10.809Z,10.70
2018-04-18T13:14:42.801Z,11.80
2018-04-18T13:17:14.122Z,11.50
2018-04-18T13:19:46.046Z,11.23
2018-04-18T13:22:17.234Z,14.40
2018-04-18T13:24:49.175Z,12.80
2018-04-18T13:27:21.405Z,11.63
2018-04-18T13:29:52.678Z,11.33
2018-04-18T13:32:24.022Z,12.37
2018-04-18T13:34:55.377Z,17.90
2018-04-18T13:37:26.662Z,11.13
2018-04-18T13:39:57.925Z,14.80
2018-04-18T13:42:29.155Z,12.73
2018-04-18T13:45:00.724Z,10.40
2018-04-18T13:47:31.937Z,13.13
2018-04-18T13:50:03.890Z,15.13
2018-04-18T13:52:35.841Z,12.97
2018-04-18T13:55:07.810Z,10.83
2018-04-18T13:57:39.821Z,12.13
2018-04-18T14:00:11.054Z,10.70
2018-04-18T14:02:42.293Z,14.17
2018-04-18T14:05:13.802Z,14.00
2018-04-18T14:07:45.820Z,14.10
2018-04-18T14:10:17.115Z,11.87
2018-04-18T14:12:48.375Z,9.03
2018-04-18T14:15:19.655Z,11.23
2018-04-18T14:17:51.009Z,12.47
2018-04-18T14:20:22.231Z,16.07
2018-04-18T14:22:54.267Z,11.47
2018-04-18T14:25:26.295Z,10.87
2018-04-18T14:27:58.350Z,10.83
2018-04-18T14:30:29.557Z,10.70
2018-04-18T14:33:00.893Z,12.80
2018-04-18T14:35:32.113Z,11.77
2018-04-18T14:38:03.427Z,10.27
2018-04-18T14:40:34.661Z,9.87
2018-04-18T14:43:06.115Z,11.43
2018-04-18T14:45:37.310Z,13.07
2018-04-18T14:48:08.599Z,10.43
2018-04-18T14:50:39.797Z,10.27
2018-04-18T14:53:11.764Z,12.50
2018-04-18T14:55:43.027Z,13.30
2018-04-18T14:58:14.310Z,10.87
2018-04-18T15:00:45.579Z,14.40
2018-04-18T15:03:17.610Z,9.50
2018-04-18T15:05:48.808Z,15.33
2018-04-18T15:08:20.068Z,13.37
2018-04-18T15:10:51.274Z,10.43
2018-04-18T15:13:23.258Z,12.73
2018-04-18T15:15:55.211Z,12.50
2018-04-18T15:18:27.211Z,11.70
2018-04-18T15:20:58.415Z,11.00
2018-04-18T15:23:29.641Z,9.73
2018-04-18T15:26:01.593Z,11.33
2018-04-18T15:28:33.018Z,15.27
2018-04-18T15:31:04.256Z,12.47
2018-04-18T15:33:35.456Z,9.67
2018-04-18T15:36:07.449Z,11.67
2018-04-18T15:38:38.774Z,12.90
2018-04-18T15:41:09.959Z,10.70
2018-04-18T15:43:41.232Z,12.67
2018-04-18T15:46:12.567Z,11.13
2018-04-18T15:48:44.585Z,13.67
2018-04-18T15:51:15.808Z,9.83
2018-04-18T15:53:47.051Z,12.13
2018-04-18T15:56:19.008Z,13.33
2018-04-18T15:58:51.202Z,9.43
2018-04-18T16:01:22.442Z,9.87
2018-04-18T16:03:53.654Z,13.67
2018-04-18T16:06:24.988Z,12.63
2018-04-18T16:08:56.921Z,9.17
2018-04-18T16:11:28.188Z,17.90
2018-04-18T16:13:59.358Z,13.27
2018-04-18T16:16:31.421Z,60.10
2018-04-18T16:19:03.464Z,10.07
2018-04-18T16:21:34.673Z,13.03
2018-04-18T16:24:05.904Z,14.63
2018-04-18T16:26:37.164Z,12.43
2018-04-18T16:29:20.713Z,12.80
2018-04-18T16:31:51.932Z,12.80
2018-04-18T16:34:23.192Z,13.43
2018-04-18T16:36:54.622Z,12.43
2018-04-18T16:39:25.873Z,11.73
2018-04-18T16:41:57.122Z,10.03
2018-04-18T16:44:28.316Z,13.63
2018-04-18T16:46:59.725Z,11.60
2018-04-18T16:49:30.907Z,9.90
2018-04-18T16:52:02.834Z,10.70
2018-04-18T16:54:34.111Z,12.27
2018-04-18T16:57:05.385Z,12.53
2018-04-18T16:59:36.673Z,38.20
2018-04-18T17:02:07.891Z,10.87
2018-04-18T17:04:39.073Z,11.40
2018-04-18T17:07:10.295Z,9.63
2018-04-18T17:09:41.533Z,11.33
2018-04-18T17:12:12.733Z,12.43
2018-04-18T17:14:44.680Z,9.60
2018-04-18T17:17:15.939Z,12.37
2018-04-18T17:19:47.942Z,9.33
2018-04-18T17:22:19.141Z,10.83
2018-04-18T17:24:51.102Z,10.00
2018-04-18T17:27:23.040Z,10.77
2018-04-18T17:29:55.006Z,10.20
2018-04-18T17:32:26.287Z,12.43
2018-04-18T17:34:57.509Z,12.60
2018-04-18T17:37:28.730Z,9.93
2018-04-18T17:40:00.011Z,12.80
2018-04-18T17:42:31.248Z,15.23
2018-04-18T17:45:03.196Z,15.47
2018-04-18T17:47:34.446Z,14.03
2018-04-18T17:50:06.450Z,15.50
2018-04-18T17:52:37.898Z,16.83
2018-04-18T17:55:09.094Z,17.07
2018-04-18T17:57:41.061Z,14.33
2018-04-18T18:00:13.110Z,13.83
2018-04-18T18:02:44.545Z,16.17
2018-04-18T18:05:15.777Z,15.83
2018-04-18T18:07:46.995Z,17.33
2018-04-18T18:10:18.148Z,13.70
2018-04-18T18:12:49.330Z,16.57
2018-04-18T18:15:21.326Z,17.33
2018-04-18T18:17:52.670Z,13.63
2018-04-18T18:20:24.664Z,17.83
2018-04-18T18:22:55.901Z,12.60
2018-04-18T18:25:27.147Z,16.80
2018-04-18T18:27:58.370Z,21.43
2018-04-18T18:30:30.292Z,13.23
2018-04-18T18:33:01.555Z,17.93
2018-04-18T18:35:33.053Z,15.53
2018-04-18T18:38:04.287Z,20.53
2018-04-18T18:40:35.635Z,16.67
2018-04-18T18:43:06.928Z,12.87
2018-04-18T18:45:38.257Z,19.53
2018-04-18T18:48:09.535Z,13.63
2018-04-18T18:50:40.735Z,19.50
2018-04-18T18:53:11.954Z,15.17
2018-04-18T18:55:43.151Z,18.73
2018-04-18T18:58:14.355Z,17.07
2018-04-18T19:00:45.584Z,21.10
2018-04-18T19:03:17.083Z,22.07
2018-04-18T19:05:56.090Z,20.03
2018-04-18T19:08:27.404Z,20.83
2018-04-18T19:10:58.628Z,20.50
2018-04-18T19:13:30.567Z,21.80
2018-04-18T19:16:01.770Z,19.33
2018-04-18T19:18:32.991Z,21.43
2018-04-18T19:21:04.268Z,20.33
2018-04-18T19:23:35.487Z,20.87
2018-04-18T19:26:06.711Z,17.87
2018-04-18T19:28:38.747Z,17.83
2018-04-18T19:31:09.907Z,23.03
2018-04-18T19:33:41.897Z,20.60
2018-04-18T19:36:13.109Z,19.53
2018-04-18T19:38:44.321Z,21.53
2018-04-18T19:41:15.551Z,19.80
2018-04-18T19:43:46.816Z,20.83
2018-04-18T19:46:18.047Z,21.97
2018-04-18T19:48:49.319Z,24.00
2018-04-18T19:51:21.274Z,24.23
2018-04-18T19:53:52.491Z,23.10
2018-04-18T19:56:23.741Z,22.90
2018-04-18T19:58:55.034Z,19.93
2018-04-18T20:01:27.035Z,24.23
2018-04-18T20:03:58.272Z,20.90
2018-04-18T20:06:29.461Z,21.80
2018-04-18T20:09:01.431Z,22.17
2018-04-18T20:11:32.604Z,21.07
2018-04-18T20:14:03.984Z,21.50
2018-04-18T20:16:35.196Z,23.47
2018-04-18T20:19:07.147Z,19.40
2018-04-18T20:21:39.441Z,24.17
2018-04-18T20:24:10.706Z,23.17
2018-04-18T20:26:41.960Z,22.77
2018-04-18T20:29:13.342Z,25.40
2018-04-18T20:31:44.636Z,24.27
2018-04-18T20:34:15.877Z,25.13
2018-04-18T20:36:47.090Z,27.90
2018-04-18T20:39:20.575Z,23.80
2018-04-18T20:41:53.350Z,25.17
2018-04-18T20:44:24.586Z,24.20
2018-04-18T20:46:56.312Z,29.40
2018-04-18T20:49:27.528Z,25.83
2018-04-18T20:51:58.755Z,23.33
2018-04-18T20:54:29.943Z,26.27
2018-04-18T20:57:01.261Z,25.03
2018-04-18T20:59:32.526Z,26.40
2018-04-18T21:02:03.783Z,32.60
2018-04-18T21:04:34.966Z,28.43
2018-04-18T21:07:07.169Z,24.00
2018-04-18T21:09:40.091Z,28.27
2018-04-18T21:12:13.073Z,30.07
2018-04-18T21:14:46.042Z,26.47
2018-04-18T21:17:18.961Z,24.67
2018-04-18T21:19:51.672Z,30.67
2018-04-18T21:22:22.965Z,25.77
2018-04-18T21:24:54.196Z,22.27
2018-04-18T21:27:25.405Z,26.10
2018-04-18T21:29:57.396Z,28.00
2018-04-18T21:32:28.588Z,31.70
2018-04-18T21:34:59.795Z,24.13
2018-04-18T21:37:31.041Z,24.87
2018-04-18T21:40:02.227Z,26.77
2018-04-18T21:42:33.551Z,32.33
2018-04-18T21:45:04.801Z,29.23
2018-04-18T21:47:35.979Z,24.87
2018-04-18T21:50:07.195Z,27.60
2018-04-18T21:52:38.373Z,25.93
2018-04-18T21:55:09.728Z,26.93
2018-04-18T21:57:40.917Z,27.87
2018-04-18T22:00:12.929Z,25.37
2018-04-18T22:02:44.153Z,24.77
2018-04-18T22:05:15.379Z,24.87
2018-04-18T22:07:48.087Z,24.97
2018-04-18T22:10:19.379Z,24.80
2018-04-18T22:12:51.345Z,23.83
2018-04-18T22:15:22.742Z,22.37
2018-04-18T22:17:53.925Z,21.63
2018-04-18T22:20:25.142Z,23.10
2018-04-18T22:22:56.418Z,25.60
2018-04-18T22:25:27.642Z,23.63
2018-04-18T22:27:58.840Z,26.40
2018-04-18T22:30:30.098Z,28.13
2018-04-18T22:33:02.076Z,25.97
2018-04-18T22:35:33.265Z,25.43
2018-04-18T22:38:05.490Z,23.60
2018-04-18T22:40:36.692Z,26.90
2018-04-18T22:43:08.620Z,31.00
2018-04-18T22:45:39.786Z,32.17
2018-04-18T22:48:11.527Z,25.47
2018-04-18T22:50:42.743Z,29.40
2018-04-18T22:53:14.166Z,29.77
2018-04-18T22:55:45.327Z,25.50
2018-04-18T22:58:16.566Z,24.43
2018-04-18T23:00:47.754Z,24.33
2018-04-18T23:03:19.067Z,29.63
2018-04-18T23:05:50.234Z,25.83
2018-04-18T23:08:21.452Z,27.57
2018-04-18T23:10:52.679Z,28.07
2018-04-18T23:13:23.884Z,30.80
2018-04-18T23:15:55.058Z,31.47
2018-04-18T23:18:26.275Z,27.27
2018-04-18T23:20:57.481Z,26.53
2018-04-18T23:23:28.709Z,29.37
2018-04-18T23:25:59.923Z,25.60
2018-04-18T23:28:31.825Z,29.27
2018-04-18T23:31:03.186Z,30.93
2018-04-18T23:33:34.410Z,35.87
2018-04-18T23:36:05.652Z,32.53
2018-04-18T23:38:36.852Z,29.77
2018-04-18T23:41:08.741Z,29.30
2018-04-18T23:43:40.058Z,27.87
2018-04-18T23:46:11.230Z,28.37
2018-04-18T23:48:42.421Z,27.37
2018-04-18T23:51:13.613Z,29.47
2018-04-18T23:53:44.795Z,27.93
2018-04-18T23:56:15.975Z,27.63
2018-04-18T23:58:47.911Z,28.60
